Currently 42°F in Beaumont, California, USA
42°F
48°F / 41°F
3 mph E
0.45"
Wednesday, May 22, 2019 2:41 PM PDT

Beaumont, California Weather Summary
Last 36 Hours

Temperature Winds Hourly Humidity Dewpoint
Time Report Norm Report Norm Max Gusts Precip. Rpt. Norm Rpt. Norm Pressure
1Wed 02:41 PM  41.5°F  69°F  3 mph E  4 mph  5 mph  0.05"  92%  47%  39°F  47°F  29.76"
3Wed 02:19 PM  41.4°F  68°F  5 mph E  5 mph  7 mph  ----  91%  48%  39°F  47°F  29.75"
Wed 02:00 PM  42.1°F  68°F  calm  4 mph  12 mph  0.07"  90%  48%  39°F  47°F  29.76"
Wed 01:00 PM  45.7°F  67°F  calm  4 mph  9 mph  0.02"  85%  51%  41°F  47°F  29.73"
Wed 12:00 PM  45.9°F  64°F  calm  4 mph  8 mph  0.00"  85%  55%  41°F  47°F  29.73"
Wed 11:00 AM  48.0°F  62°F  2 mph S  4 mph  6 mph  0.00"  80%  59%  42°F  47°F  29.73"
2Wed 10:54 AM  48.0°F  62°F  calm  4 mph  6 mph  ----  80%  59%  42°F  47°F  29.73"
Wed 10:00 AM  44.1°F  60°F  3 mph NW  4 mph  15 mph  0.00"  90%  65%  41°F  47°F  29.73"
Wed 09:00 AM  43.5°F  57°F  2 mph SW  3 mph  5 mph  0.01"  97%  70%  43°F  47°F  29.73"
Wed 08:00 AM  42.4°F  55°F  1 mph SW  2 mph  5 mph  0.11"  97%  74%  42°F  47°F  29.73"
Wed 07:00 AM  42.3°F  53°F  calm  2 mph  7 mph  0.15"  97%  76%  41°F  46°F  29.72"
Wed 06:00 AM  42.1°F  52°F  1 mph SW  2 mph  6 mph  0.03"  96%  77%  41°F  45°F  29.71"
Wed 05:00 AM  42.3°F  52°F  calm  2 mph  3 mph  0.00"  96%  78%  41°F  45°F  29.70"
Wed 04:00 AM  42.4°F  52°F  1 mph W  2 mph  8 mph  0.00"  96%  78%  41°F  45°F  29.70"
Wed 03:00 AM  43.0°F  52°F  calm  2 mph  5 mph  0.00"  96%  78%  42°F  45°F  29.71"
Wed 02:00 AM  43.2°F  53°F  2 mph W  2 mph  8 mph  0.00"  96%  77%  42°F  46°F  29.73"
Wed 01:00 AM  43.2°F  53°F  calm  2 mph  7 mph  0.00"  95%  77%  42°F  46°F  29.75"
Wed 12:00 AM  43.3°F  54°F  calm  2 mph  3 mph  0.00"  94%  76%  42°F  46°F  29.76"
Tue 11:00 PM  44.1°F  55°F  calm  2 mph  9 mph  0.00"  93%  74%  42°F  46°F  29.78"
Tue 10:00 PM  44.1°F  56°F  calm  2 mph  15 mph  0.00"  92%  71%  42°F  47°F  29.78"
Tue 09:00 PM  43.5°F  58°F  2 mph SW  3 mph  13 mph  0.00"  93%  68%  42°F  47°F  29.78"
Tue 08:00 PM  43.5°F  60°F  2 mph SE  3 mph  13 mph  0.00"  92%  62%  41°F  47°F  29.78"
Tue 07:00 PM  44.1°F  63°F  4 mph SW  3 mph  12 mph  0.01"  91%  56%  41°F  47°F  29.78"
Tue 06:00 PM  47.3°F  67°F  3 mph NW  4 mph  15 mph  0.00"  80%  50%  41°F  47°F  29.78"
Tue 05:00 PM  49.5°F  68°F  4 mph W  4 mph  23 mph  0.00"  72%  48%  40°F  47°F  29.79"
Tue 04:00 PM  50.9°F  69°F  4 mph W  4 mph  14 mph  0.00"  66%  47%  39°F  47°F  29.81"
Tue 03:00 PM  51.6°F  69°F  3 mph SW  4 mph  14 mph  0.00"  69%  47%  41°F  47°F  29.83"
Tue 02:00 PM  51.6°F  68°F  5 mph SE  4 mph  20 mph  0.00"  69%  49%  41°F  47°F  29.84"
Tue 01:00 PM  52.3°F  66°F  2 mph SW  4 mph  14 mph  0.00"  68%  51%  42°F  47°F  29.86"
Tue 12:00 PM  52.0°F  64°F  5 mph W  4 mph  15 mph  0.00"  64%  55%  40°F  47°F  29.87"
Tue 11:00 AM  50.0°F  62°F  4 mph W  4 mph  12 mph  0.00"  75%  59%  42°F  47°F  29.89"
Tue 10:00 AM  47.1°F  60°F  2 mph SW  4 mph  9 mph  0.00"  83%  64%  42°F  47°F  29.91"
Tue 09:00 AM  45.0°F  57°F  1 mph W  3 mph  10 mph  0.00"  88%  69%  41°F  47°F  29.91"
Tue 08:00 AM  43.2°F  55°F  1 mph W  2 mph  6 mph  0.00"  95%  73%  42°F  46°F  29.92"
Tue 07:00 AM  42.4°F  53°F  1 mph SW  2 mph  9 mph  0.00"  95%  75%  41°F  45°F  29.93"
Tue 06:00 AM  42.3°F  52°F  1 mph SW  2 mph  6 mph  0.00"  95%  76%  41°F  44°F  29.94"
Tue 05:00 AM  42.3°F  52°F  4 mph SW  2 mph  8 mph  0.00"  95%  77%  41°F  45°F  29.94"
Tue 04:00 AM  42.3°F  52°F  calm  2 mph  6 mph  0.00"  95%  77%  41°F  45°F  29.94"
Tue 03:00 AM  42.6°F  53°F  2 mph SW  2 mph  6 mph  0.00"  95%  77%  41°F  45°F  29.96"

  1. Current weather data. No green row appears if the current weather data is also the high or low for the current day.
  2. High temperature for the current day.
  3. Low temperature for the current day.

The Beaumont, California weather pages are a service of WeatherCurrents. Cherry Valley is located in northern Riverside County, California, a community of the northern part of Beaumont, along the Interstate 10 highway, in the San Gorgonio pass area, between the communities of Calimesa, Banning.
Copyright ©2019  WeatherCurrents. All rights reserved. - Submit questions and comments - Privacy Policy

This page automatically refreshes every 10 minutes.